createdAt,value
2023-02-03T00:01:48.528Z,102605.34
2023-02-03T00:04:16.079Z,102597.59
2023-02-03T00:06:42.958Z,102610.72
2023-02-03T00:09:10.160Z,102614.31
2023-02-03T00:11:36.856Z,102632.06
2023-02-03T00:14:05.421Z,102630.28
2023-02-03T00:16:32.608Z,102614.41
2023-02-03T00:18:59.641Z,102625.06
2023-02-03T00:21:26.793Z,102633.97
2023-02-03T00:23:54.682Z,102640.22
2023-02-03T00:26:21.982Z,102632.25
2023-02-03T00:28:48.711Z,102641.06
2023-02-03T00:31:23.459Z,102634.06
2023-02-03T00:33:57.703Z,102645.50
2023-02-03T00:36:25.444Z,102642.94
2023-02-03T00:38:52.817Z,102648.22
2023-02-03T00:41:20.915Z,102639.50
2023-02-03T00:43:48.813Z,102646.59
2023-02-03T00:46:16.981Z,102636.00
2023-02-03T00:48:44.024Z,102629.94
2023-02-03T00:51:10.616Z,102627.31
2023-02-03T00:53:37.190Z,102594.94
2023-02-03T00:56:03.989Z,102605.44
2023-02-03T00:58:31.050Z,102602.72
2023-02-03T01:00:57.678Z,102605.34
2023-02-03T01:03:24.768Z,102603.66
2023-02-03T01:05:51.798Z,102594.00
2023-02-03T01:08:18.477Z,102602.88
2023-02-03T01:10:45.587Z,102602.88
2023-02-03T01:13:12.789Z,102605.63
2023-02-03T01:15:46.056Z,102590.69
2023-02-03T01:18:13.283Z,102576.53
2023-02-03T01:20:40.341Z,102587.19
2023-02-03T01:23:06.911Z,102568.06
2023-02-03T01:25:35.924Z,102589.16
2023-02-03T01:28:03.467Z,102582.06
2023-02-03T01:30:30.214Z,102583.78
2023-02-03T01:32:57.239Z,102585.56
2023-02-03T01:35:23.806Z,102570.63
2023-02-03T01:37:50.934Z,102578.66
2023-02-03T01:40:18.220Z,102564.66
2023-02-03T01:42:44.775Z,102570.72
2023-02-03T01:45:13.476Z,102581.38
2023-02-03T01:47:48.965Z,102574.31
2023-02-03T01:50:21.387Z,102556.78
2023-02-03T01:52:53.488Z,102555.00
2023-02-03T01:55:25.461Z,102539.22
2023-02-03T01:57:59.314Z,102548.09
2023-02-03T02:00:26.333Z,102552.44
2023-02-03T02:02:54.403Z,102569.38
2023-02-03T02:05:44.921Z,102579.00
2023-02-03T02:08:14.208Z,102575.59
2023-02-03T02:10:41.214Z,102559.72
2023-02-03T02:13:07.867Z,102561.50
2023-02-03T02:15:53.473Z,102561.59
2023-02-03T02:18:46.132Z,102551.00
2023-02-03T02:21:34.343Z,102537.88
2023-02-03T02:24:22.536Z,102559.03
2023-02-03T02:27:31.236Z,102550.31
2023-02-03T02:30:29.202Z,102543.41
2023-02-03T02:33:06.160Z,102527.22
2023-02-03T02:36:04.896Z,102515.53
2023-02-03T02:38:41.094Z,102495.72
2023-02-03T02:41:22.994Z,102525.81
2023-02-03T02:44:07.172Z,102507.31
2023-02-03T02:46:43.801Z,102525.81
2023-02-03T02:49:20.815Z,102509.22
2023-02-03T02:51:52.327Z,102492.56
2023-02-03T02:54:24.872Z,102491.38
2023-02-03T02:57:02.282Z,102494.28
2023-02-03T02:59:31.003Z,102498.56
2023-02-03T03:02:01.231Z,102504.94
2023-02-03T03:04:35.783Z,102511.16
2023-02-03T03:07:17.231Z,102531.31
2023-02-03T03:09:53.160Z,102521.66
2023-02-03T03:12:23.082Z,102551.78
2023-02-03T03:14:56.465Z,102523.53
2023-02-03T03:17:31.277Z,102533.03
2023-02-03T03:20:02.444Z,102523.63
2023-02-03T03:22:37.511Z,102524.16
2023-02-03T03:25:14.965Z,102536.91
2023-02-03T03:27:51.180Z,102526.34
2023-02-03T03:30:43.470Z,102522.75
2023-02-03T03:33:11.087Z,102534.81
2023-02-03T03:36:47.828Z,102539.06
2023-02-03T03:39:29.194Z,102540.50
2023-02-03T03:42:04.303Z,102543.16
2023-02-03T03:44:42.897Z,102504.63
2023-02-03T03:47:17.863Z,102537.00
2023-02-03T03:49:50.689Z,102515.94
2023-02-03T03:52:23.415Z,102525.16
2023-02-03T03:54:57.225Z,102516.91
2023-02-03T03:57:59.229Z,102537.53
2023-02-03T04:00:31.044Z,102539.81
2023-02-03T04:03:04.948Z,102526.63
2023-02-03T04:05:33.855Z,102558.59
2023-02-03T04:08:03.718Z,102523.97
2023-02-03T04:10:45.364Z,102537.63
2023-02-03T04:13:19.114Z,102536.16
2023-02-03T04:15:46.667Z,102545.53
2023-02-03T04:18:19.615Z,102547.56
2023-02-03T04:20:49.437Z,102532.22
2023-02-03T04:23:20.152Z,102555.19
2023-02-03T04:25:47.938Z,102552.38
2023-02-03T04:28:20.068Z,102528.50
2023-02-03T04:30:56.246Z,102523.13
2023-02-03T04:33:24.376Z,102517.06
2023-02-03T04:35:55.953Z,102535.06
2023-02-03T04:38:25.998Z,102577.78
2023-02-03T04:40:56.999Z,102524.13
2023-02-03T04:43:26.804Z,102530.84
2023-02-03T04:46:00.101Z,102508.34
2023-02-03T04:48:30.652Z,102530.78
2023-02-03T04:51:05.587Z,102506.56
2023-02-03T04:53:49.275Z,102497.25
2023-02-03T04:56:18.879Z,102502.28
2023-02-03T04:58:49.715Z,102516.53
2023-02-03T05:01:24.033Z,102530.69
2023-02-03T05:03:50.762Z,102497.84
2023-02-03T05:06:32.216Z,102524.56
2023-02-03T05:08:59.243Z,102522.50
2023-02-03T05:11:32.502Z,102537.09
2023-02-03T05:14:05.649Z,102531.28
2023-02-03T05:16:33.053Z,102544.28
2023-02-03T05:19:04.075Z,102543.81
2023-02-03T05:21:38.992Z,102537.94
2023-02-03T05:24:15.189Z,102537.09
2023-02-03T05:26:47.878Z,102517.38
2023-02-03T05:29:22.751Z,102529.16
2023-02-03T05:31:51.286Z,102511.41
2023-02-03T05:34:25.901Z,102545.00
2023-02-03T05:36:53.463Z,102535.66
2023-02-03T05:39:23.608Z,102565.06
2023-02-03T05:41:54.121Z,102537.00
2023-02-03T05:44:27.150Z,102552.19
2023-02-03T05:47:03.168Z,102532.53
2023-02-03T05:49:32.012Z,102550.50
2023-02-03T05:52:02.651Z,102530.75
2023-02-03T05:54:37.444Z,102541.34
2023-02-03T05:57:07.635Z,102542.47
2023-02-03T05:59:35.033Z,102517.91
2023-02-03T06:02:05.370Z,102529.31
2023-02-03T06:04:35.725Z,102532.72
2023-02-03T06:07:06.153Z,102540.66
2023-02-03T06:09:35.972Z,102553.38
2023-02-03T06:12:07.626Z,102530.00
2023-02-03T06:14:34.999Z,102573.25
2023-02-03T06:17:12.148Z,102539.03
2023-02-03T06:19:41.046Z,102567.28
2023-02-03T06:22:10.779Z,102565.66
2023-02-03T06:24:46.983Z,102568.22
2023-02-03T06:27:15.554Z,102573.84
2023-02-03T06:29:48.600Z,102578.13
2023-02-03T06:32:15.826Z,102568.56
2023-02-03T06:34:46.093Z,102566.00
2023-02-03T06:37:13.314Z,102560.63
2023-02-03T06:39:40.594Z,102573.09
2023-02-03T06:42:09.828Z,102562.00
2023-02-03T06:44:39.094Z,102560.28
2023-02-03T06:47:08.658Z,102570.78
2023-02-03T06:49:35.953Z,102583.41
2023-02-03T06:52:08.762Z,102587.16
2023-02-03T06:54:43.956Z,102576.66
2023-02-03T06:57:16.394Z,102579.38
2023-02-03T06:59:55.347Z,102570.50
2023-02-03T07:02:32.295Z,102578.22
2023-02-03T07:05:02.707Z,102579.16
2023-02-03T07:07:33.005Z,102583.50
2023-02-03T07:10:05.597Z,102573.78
2023-02-03T07:12:32.363Z,102573.78
2023-02-03T07:15:07.694Z,102565.84
2023-02-03T07:17:36.199Z,102596.66
2023-02-03T07:20:08.792Z,102551.69
2023-02-03T07:22:37.277Z,102559.69
2023-02-03T07:25:06.506Z,102573.63
2023-02-03T07:27:35.595Z,102586.41
2023-02-03T07:30:03.055Z,102597.44
2023-02-03T07:32:33.657Z,102570.97
2023-02-03T07:35:10.341Z,102581.38
2023-02-03T07:37:42.254Z,102585.56
2023-02-03T07:40:23.841Z,102591.09
2023-02-03T07:42:54.781Z,102576.75
2023-02-03T07:45:31.158Z,102596.03
2023-02-03T07:47:58.519Z,102602.88
2023-02-03T07:50:26.149Z,102622.84
2023-02-03T07:52:56.390Z,102613.75
2023-02-03T07:55:23.209Z,102605.38
2023-02-03T07:57:51.980Z,102618.28
2023-02-03T08:00:22.325Z,102635.31
2023-02-03T08:02:51.681Z,102612.63
2023-02-03T08:05:27.813Z,102616.13
2023-02-03T08:07:58.098Z,102645.25
2023-02-03T08:10:28.847Z,102619.69
2023-02-03T08:13:02.040Z,102624.31
2023-02-03T08:15:30.744Z,102638.81
2023-02-03T08:18:02.792Z,102632.59
2023-02-03T08:20:32.637Z,102655.75
2023-02-03T08:23:02.557Z,102655.59
2023-02-03T08:25:34.494Z,102646.34
2023-02-03T08:28:04.732Z,102644.38
2023-02-03T08:30:35.717Z,102648.75
2023-02-03T08:33:05.019Z,102666.69
2023-02-03T08:35:34.811Z,102660.72
2023-02-03T08:38:04.663Z,102675.94
2023-02-03T08:40:34.871Z,102646.72
2023-02-03T08:43:02.188Z,102650.16
2023-02-03T08:45:30.057Z,102661.84
2023-02-03T08:47:57.619Z,102679.31
2023-02-03T08:50:28.036Z,102669.94
2023-02-03T08:52:55.472Z,102666.28
2023-02-03T08:55:34.883Z,102667.22
2023-02-03T08:58:06.050Z,102679.16
2023-02-03T09:00:35.975Z,102691.91
2023-02-03T09:03:08.398Z,102677.91
2023-02-03T09:05:35.620Z,102686.44
2023-02-03T09:08:08.957Z,102683.19
2023-02-03T09:10:40.083Z,102690.13
2023-02-03T09:13:07.887Z,102686.28
2023-02-03T09:15:35.077Z,102700.78
2023-02-03T09:18:04.382Z,102688.84
2023-02-03T09:20:34.270Z,102700.34
2023-02-03T09:23:06.874Z,102702.94
2023-02-03T09:25:34.337Z,102691.66
2023-02-03T09:28:04.653Z,102669.63
2023-02-03T09:30:41.057Z,102677.47
2023-02-03T09:33:12.858Z,102692.19
2023-02-03T09:35:40.555Z,102683.63
2023-02-03T09:38:07.723Z,102703.94
2023-02-03T09:40:44.365Z,102688.22
2023-02-03T09:43:32.473Z,102720.63
2023-02-03T09:46:18.646Z,102686.19
2023-02-03T09:48:55.095Z,102683.56
2023-02-03T09:51:58.036Z,102699.84
2023-02-03T09:55:00.068Z,102700.28
2023-02-03T10:00:33.078Z,102708.72
2023-02-03T10:03:28.790Z,102716.34
2023-02-03T10:06:23.773Z,102726.50
2023-02-03T10:09:24.581Z,102735.22
2023-02-03T10:11:59.908Z,102737.78
2023-02-03T10:14:52.922Z,102744.78
2023-02-03T10:17:41.877Z,102745.66
2023-02-03T10:20:42.436Z,102732.06
2023-02-03T10:23:40.504Z,102739.06
2023-02-03T10:26:17.585Z,102731.22
2023-02-03T10:29:23.764Z,102761.53
2023-02-03T10:31:53.051Z,102755.19
2023-02-03T10:34:20.102Z,102774.13
2023-02-03T10:36:59.819Z,102762.13
2023-02-03T10:39:41.005Z,102763.91
2023-02-03T10:42:10.487Z,102748.09
2023-02-03T10:44:41.409Z,102770.41
2023-02-03T10:47:47.779Z,102765.63
2023-02-03T10:50:18.201Z,102781.00
2023-02-03T10:52:45.033Z,102756.91
2023-02-03T10:55:27.045Z,102787.56
2023-02-03T10:57:57.415Z,102775.78
2023-02-03T11:00:36.056Z,102778.03
2023-02-03T11:03:28.794Z,102794.41
2023-02-03T11:06:05.281Z,102793.47
2023-02-03T11:08:35.186Z,102767.91
2023-02-03T11:11:11.048Z,102789.72
2023-02-03T11:13:40.327Z,102805.69
2023-02-03T11:16:27.628Z,102776.63
2023-02-03T11:19:04.777Z,102809.06
2023-02-03T11:21:42.067Z,102784.19
2023-02-03T11:24:23.288Z,102787.84
2023-02-03T11:30:42.446Z,102811.84
2023-02-03T11:33:22.364Z,102783.47
2023-02-03T11:35:59.944Z,102803.22
2023-02-03T11:38:39.064Z,102802.53
2023-02-03T11:41:06.431Z,102805.63
2023-02-03T11:43:34.868Z,102786.63
2023-02-03T11:46:11.375Z,102819.25
2023-02-03T11:48:48.793Z,102821.25
2023-02-03T11:51:41.951Z,102828.03
2023-02-03T11:54:26.139Z,102829.75
2023-02-03T11:57:22.745Z,102839.50
2023-02-03T12:00:12.299Z,102837.69
2023-02-03T12:03:02.484Z,102846.50
2023-02-03T12:06:24.584Z,102823.53
2023-02-03T12:09:13.032Z,102830.16
2023-02-03T12:12:13.836Z,102837.53
2023-02-03T12:15:36.478Z,102814.25
2023-02-03T12:18:33.519Z,102835.75
2023-02-03T12:21:06.247Z,102839.91
2023-02-03T12:23:56.362Z,102841.56
2023-02-03T12:26:48.009Z,102818.38
2023-02-03T12:29:17.903Z,102849.19
2023-02-03T12:32:13.777Z,102854.31
2023-02-03T12:35:16.500Z,102836.69
2023-02-03T12:37:54.722Z,102862.00
2023-02-03T12:40:49.511Z,102866.34
2023-02-03T12:43:41.671Z,102843.44
2023-02-03T12:46:21.564Z,102879.50
2023-02-03T12:49:19.951Z,102855.81
2023-02-03T12:52:07.312Z,102875.97
2023-02-03T12:54:50.941Z,102897.97
2023-02-03T12:57:32.815Z,102874.34
2023-02-03T13:00:04.224Z,102891.56
2023-02-03T13:02:53.115Z,102868.03
2023-02-03T13:05:30.267Z,102875.91
2023-02-03T13:08:15.299Z,102888.91
2023-02-03T13:10:48.801Z,102893.19
2023-02-03T13:13:24.063Z,102877.78
2023-02-03T13:15:57.767Z,102887.97
2023-02-03T13:18:35.622Z,102909.44
2023-02-03T13:21:08.450Z,102884.72
2023-02-03T13:23:38.723Z,102899.34
2023-02-03T13:26:37.459Z,102911.16
2023-02-03T13:29:37.439Z,102899.34
2023-02-03T13:32:27.156Z,102896.78
2023-02-03T13:34:59.850Z,102910.28
2023-02-03T13:38:03.008Z,102901.81
2023-02-03T13:41:15.282Z,102903.88
2023-02-03T13:43:48.824Z,102901.22
2023-02-03T13:46:25.311Z,102911.22
2023-02-03T13:49:00.656Z,102883.69
2023-02-03T13:51:34.870Z,102889.56
2023-02-03T13:54:08.961Z,102878.16
2023-02-03T13:56:41.317Z,102893.00
2023-02-03T13:59:17.138Z,102917.13
2023-02-03T14:01:44.748Z,102918.09
2023-02-03T14:04:26.341Z,102920.72
2023-02-03T14:06:53.112Z,102924.25
2023-02-03T14:09:31.917Z,102927.72
2023-02-03T14:12:43.170Z,102908.03
2023-02-03T14:15:32.381Z,102936.53
2023-02-03T14:18:00.194Z,102940.97
2023-02-03T14:20:30.644Z,102941.81
2023-02-03T14:23:40.715Z,102918.13
2023-02-03T14:26:18.472Z,102937.72
2023-02-03T14:28:54.760Z,102921.56
2023-02-03T14:31:26.215Z,102931.81
2023-02-03T14:34:05.840Z,102920.53
2023-02-03T14:36:38.772Z,102957.63
2023-02-03T14:39:38.258Z,102934.47
2023-02-03T14:42:30.631Z,102940.69
2023-02-03T14:45:12.514Z,102962.09
2023-02-03T14:48:12.302Z,102971.81
2023-02-03T14:51:01.811Z,102958.56
2023-02-03T14:53:50.634Z,102954.47
2023-02-03T14:57:09.578Z,102956.78
2023-02-03T14:59:43.078Z,102948.31
2023-02-03T15:02:20.147Z,102937.19
2023-02-03T15:04:54.152Z,102940.09
2023-02-03T15:07:37.528Z,102972.69
2023-02-03T15:10:13.435Z,102961.50
2023-02-03T15:12:48.722Z,102966.63
2023-02-03T15:15:32.659Z,102940.25
2023-02-03T15:18:20.606Z,102938.38
2023-02-03T15:20:57.868Z,102940.03
2023-02-03T15:23:30.418Z,102946.06
2023-02-03T15:26:03.458Z,102952.16
2023-02-03T15:28:30.840Z,102938.38
2023-02-03T15:31:21.762Z,102976.19
2023-02-03T15:33:50.369Z,102952.41
2023-02-03T15:36:24.793Z,102957.78
2023-02-03T15:39:27.897Z,102979.78
2023-02-03T15:41:56.981Z,102953.16
2023-02-03T15:44:33.201Z,102955.06
2023-02-03T15:47:02.957Z,102983.63
2023-02-03T15:49:40.893Z,102982.69
2023-02-03T15:52:26.173Z,102989.88
2023-02-03T15:55:02.026Z,102958.72
2023-02-03T15:57:36.800Z,102998.31
2023-02-03T16:00:35.475Z,102986.78
2023-02-03T16:03:05.560Z,102989.50
2023-02-03T16:05:38.716Z,102987.59
2023-02-03T16:08:38.935Z,103009.72
2023-02-03T16:11:34.687Z,103014.00
2023-02-03T16:14:21.038Z,102979.66
2023-02-03T16:17:05.083Z,103031.75
2023-02-03T16:19:38.478Z,103026.88
2023-02-03T16:22:27.250Z,103025.94
2023-02-03T16:24:56.757Z,103026.16
2023-02-03T16:27:39.756Z,103030.69
2023-02-03T16:30:24.828Z,103058.03
2023-02-03T16:33:33.295Z,103028.81
2023-02-03T16:36:30.819Z,103055.69
2023-02-03T16:39:19.933Z,103040.44
2023-02-03T16:42:07.865Z,103050.72
2023-02-03T16:44:56.115Z,103060.22
2023-02-03T16:47:50.357Z,103074.72
2023-02-03T16:50:40.075Z,103053.44
2023-02-03T16:53:16.376Z,103046.28
2023-02-03T16:56:22.336Z,103049.94
2023-02-03T16:58:51.647Z,103069.00
2023-02-03T17:01:22.283Z,103067.72
2023-02-03T17:03:52.893Z,103065.06
2023-02-03T17:06:27.229Z,103081.66
2023-02-03T17:09:00.416Z,103086.88
2023-02-03T17:14:18.641Z,103086.19
2023-02-03T17:16:45.447Z,103081.59
2023-02-03T17:19:25.655Z,103079.94
2023-02-03T17:22:04.467Z,103117.91
2023-02-03T17:24:33.566Z,103088.75
2023-02-03T17:29:49.276Z,103102.78
2023-02-03T17:32:48.088Z,103108.75
2023-02-03T17:35:15.361Z,103104.66
2023-02-03T17:37:44.309Z,103110.47
2023-02-03T17:54:08.985Z,103165.91
2023-02-03T17:56:37.245Z,103151.25
2023-02-03T17:59:14.322Z,103149.56
2023-02-03T18:01:43.814Z,103142.69
2023-02-03T18:04:10.472Z,103168.63
2023-02-03T18:07:04.777Z,103176.34
2023-02-03T18:09:49.910Z,103171.69
2023-02-03T18:13:15.925Z,103184.25
2023-02-03T18:15:44.645Z,103183.75
2023-02-03T18:18:40.717Z,103194.84
2023-02-03T18:21:11.792Z,103173.63
2023-02-03T18:27:17.383Z,103204.81
2023-02-03T18:30:12.101Z,103224.06
2023-02-03T18:32:41.966Z,103196.53
2023-02-03T18:35:13.110Z,103206.28
2023-02-03T18:37:44.413Z,103224.28
2023-02-03T18:40:45.257Z,103234.59
2023-02-03T18:43:26.562Z,103205.50
2023-02-03T18:46:01.878Z,103214.22
2023-02-03T18:48:33.425Z,103214.88
2023-02-03T18:51:02.624Z,103207.19
2023-02-03T18:53:29.742Z,103209.72
2023-02-03T18:56:39.531Z,103243.41
2023-02-03T18:59:12.192Z,103214.22
2023-02-03T19:02:07.077Z,103245.19
2023-02-03T19:04:42.116Z,103208.91
2023-02-03T19:07:08.910Z,103198.47
2023-02-03T19:12:19.493Z,103230.50
2023-02-03T19:14:52.275Z,103237.53
2023-02-03T19:17:28.285Z,103225.59
2023-02-03T19:20:00.218Z,103235.66
2023-02-03T19:22:27.024Z,103230.59
2023-02-03T19:24:57.377Z,103217.81
2023-02-03T19:27:31.774Z,103223.75
2023-02-03T19:29:59.178Z,103249.00
2023-02-03T19:32:28.882Z,103241.50
2023-02-03T19:34:57.345Z,103265.75
2023-02-03T19:37:24.914Z,103259.19
2023-02-03T19:39:52.615Z,103255.69
2023-02-03T19:42:19.402Z,103272.13
2023-02-03T19:44:55.892Z,103266.28
2023-02-03T19:47:28.023Z,103275.03
2023-02-03T19:54:49.305Z,103301.72
2023-02-03T20:23:58.939Z,103315.97
2023-02-03T20:34:18.434Z,103315.41
2023-02-03T20:36:48.480Z,103287.69
2023-02-03T20:49:53.062Z,103331.81
2023-02-03T20:52:23.933Z,103300.72
2023-02-03T20:54:53.064Z,103298.88
2023-02-03T20:57:29.191Z,103306.03
2023-02-03T21:00:08.056Z,103303.31
2023-02-03T21:02:54.647Z,103319.91
2023-02-03T21:05:30.308Z,103306.03
2023-02-03T21:07:59.246Z,103315.63
2023-02-03T21:10:27.031Z,103312.06
2023-02-03T21:12:57.651Z,103331.88
2023-02-03T21:18:35.070Z,103350.97
2023-02-03T21:21:08.555Z,103332.16
2023-02-03T21:23:42.818Z,103325.84
2023-02-03T21:26:24.875Z,103353.69
2023-02-03T21:29:02.878Z,103324.38
2023-02-03T21:31:43.582Z,103325.38
2023-02-03T21:34:27.129Z,103328.72
2023-02-03T21:37:17.582Z,103334.88
2023-02-03T21:39:49.101Z,103351.84
2023-02-03T21:42:56.992Z,103346.50
2023-02-03T21:45:43.129Z,103375.69
2023-02-03T21:48:36.249Z,103364.03
2023-02-03T21:51:17.788Z,103376.94
2023-02-03T21:54:00.706Z,103364.88
2023-02-03T21:56:43.832Z,103398.63
2023-02-03T21:59:27.230Z,103371.22
2023-02-03T22:01:56.665Z,103364.03
2023-02-03T22:04:30.810Z,103374.13
2023-02-03T22:06:58.217Z,103370.03
2023-02-03T22:09:28.325Z,103387.09
2023-02-03T22:11:57.942Z,103380.44
2023-02-03T22:14:28.343Z,103362.22
2023-02-03T22:16:57.938Z,103380.72
2023-02-03T22:19:27.750Z,103385.09
2023-02-03T22:21:58.958Z,103403.19
2023-02-03T22:24:26.369Z,103418.75
2023-02-03T22:26:56.669Z,103383.50
2023-02-03T22:29:23.445Z,103395.56
2023-02-03T22:31:52.782Z,103406.16
2023-02-03T22:34:25.838Z,103418.28
2023-02-03T22:36:53.256Z,103419.03
2023-02-03T22:39:19.958Z,103429.63
2023-02-03T22:41:50.000Z,103413.38
2023-02-03T22:44:20.690Z,103420.34
2023-02-03T22:46:50.206Z,103419.47
2023-02-03T22:49:17.394Z,103432.66
2023-02-03T22:51:45.975Z,103443.06
2023-02-03T22:54:16.911Z,103441.34
2023-02-03T22:56:45.605Z,103423.41
2023-02-03T22:59:12.233Z,103448.56
2023-02-03T23:01:38.917Z,103444.47
2023-02-03T23:04:06.869Z,103446.84
2023-02-03T23:06:36.552Z,103432.38
2023-02-03T23:09:08.398Z,103443.41
2023-02-03T23:11:38.088Z,103428.91
2023-02-03T23:14:10.354Z,103429.06
2023-02-03T23:16:39.416Z,103453.38
2023-02-03T23:19:09.372Z,103452.50
2023-02-03T23:21:41.793Z,103438.72
2023-02-03T23:24:12.669Z,103472.63
2023-02-03T23:26:44.078Z,103439.09
2023-02-03T23:29:13.161Z,103453.81
2023-02-03T23:31:44.333Z,103453.91
2023-02-03T23:34:29.528Z,103454.84
2023-02-03T23:36:57.016Z,103477.28
2023-02-03T23:39:26.701Z,103459.44
2023-02-03T23:41:54.038Z,103460.34
2023-02-03T23:44:21.170Z,103500.28
2023-02-03T23:46:50.187Z,103467.31
2023-02-03T23:49:20.840Z,103479.75
2023-02-03T23:51:49.062Z,103470.16
2023-02-03T23:54:16.614Z,103475.38
2023-02-03T23:56:47.944Z,103461.47
2023-02-03T23:59:17.697Z,103476.31
